PADK/ADK METAR and TAF weather

Enter ICAO airport designator
Station Type Date Time Source
PADK METAR 2020/10/29 17:07 UTC NOAA

PADK 291707Z AUTO 05030G37KT 4SM -RA BR OVC007 06/05 A2911 RMK AO2 PK WND 05037/1703 P0001


Station Type Date Time Source
PADK Decoded METAR 2020/10/29 17:07 UTC NOAA

Adak Island, Adak Airport, AK, United States (PADK) 51-52-40N 176-38-45W 4M
Oct 29, 2020 - 01:07 PM EDT / 2020.10.29 1707 UTC
Wind: from the NE (050 degrees) at 35 MPH (30 KT) gusting to 43 MPH (37 KT):0
Visibility: 4 mile(s):0
Sky conditions: overcast
Weather: light rain; mist
Precipitation last hour: 0.01 inches
Temperature: 42 F (6 C)
Dew Point: 41 F (5 C)
Relative Humidity: 93%
Pressure (altimeter): 29.11 in. Hg (985 hPa)
ob: PADK 291707Z AUTO 05030G37KT 4SM -RA BR OVC007 06/05 A2911 RMK AO2 PK WND 05037/1703 P0001
cycle: 17

Station Type Date Time Source
PADK TAF 2007/04/07 12:54 UTC NOAA

TAF PADK 070404 33010G15KT 9999 FEW025 BKN030 OVC050 QNH2900INS T03/00Z TM01/18Z COR 1205 LAST NO
AMDS AFT 0712;

Example: see airport list